sensor_id;sensor_type;location;lat;lon;timestamp;pressure;altitude;pressure_sealevel;temperature;humidity
11621;BME280;5866;49.094;11.900;2023-10-19T00:00:53;94886.63;;;8.92;100.00
11621;BME280;5866;49.094;11.900;2023-10-19T00:03:24;94889.31;;;8.99;100.00
11621;BME280;5866;49.094;11.900;2023-10-19T00:05:51;94880.09;;;9.45;100.00
11621;BME280;5866;49.094;11.900;2023-10-19T00:08:19;94883.53;;;9.24;100.00
11621;BME280;5866;49.094;11.900;2023-10-19T00:10:48;94874.66;;;9.11;100.00
11621;BME280;5866;49.094;11.900;2023-10-19T00:13:29;94869.81;;;9.00;100.00
11621;BME280;5866;49.094;11.900;2023-10-19T00:15:57;94863.38;;;8.88;100.00
11621;BME280;5866;49.094;11.900;2023-10-19T00:18:26;94862.00;;;8.92;100.00
11621;BME280;5866;49.094;11.900;2023-10-19T00:20:58;94862.09;;;8.98;100.00
11621;BME280;5866;49.094;11.900;2023-10-19T00:23:26;94848.41;;;8.95;100.00
11621;BME280;5866;49.094;11.900;2023-10-19T00:25:57;94854.59;;;9.02;100.00
11621;BME280;5866;49.094;11.900;2023-10-19T00:28:26;94853.34;;;9.54;100.00
11621;BME280;5866;49.094;11.900;2023-10-19T00:30:54;94861.56;;;9.45;100.00
11621;BME280;5866;49.094;11.900;2023-10-19T00:33:35;94854.69;;;9.93;100.00
11621;BME280;5866;49.094;11.900;2023-10-19T00:36:06;94857.41;;;9.78;100.00
11621;BME280;5866;49.094;11.900;2023-10-19T00:38:35;94858.41;;;9.77;100.00
11621;BME280;5866;49.094;11.900;2023-10-19T00:41:15;94847.31;;;9.88;100.00
11621;BME280;5866;49.094;11.900;2023-10-19T00:43:48;94843.13;;;10.00;100.00
11621;BME280;5866;49.094;11.900;2023-10-19T00:46:18;94837.31;;;10.39;100.00
11621;BME280;5866;49.094;11.900;2023-10-19T00:48:55;94833.69;;;10.12;100.00
11621;BME280;5866;49.094;11.900;2023-10-19T00:51:27;94845.31;;;9.48;100.00
11621;BME280;5866;49.094;11.900;2023-10-19T00:54:10;94837.63;;;9.32;100.00
11621;BME280;5866;49.094;11.900;2023-10-19T00:56:42;94835.00;;;9.32;100.00
11621;BME280;5866;49.094;11.900;2023-10-19T00:59:15;94831.31;;;9.75;100.00
11621;BME280;5866;49.094;11.900;2023-10-19T01:01:51;94822.03;;;9.86;100.00
11621;BME280;5866;49.094;11.900;2023-10-19T01:04:23;94825.69;;;9.57;100.00
11621;BME280;5866;49.094;11.900;2023-10-19T01:06:52;94823.13;;;9.49;100.00
11621;BME280;5866;49.094;11.900;2023-10-19T01:09:38;94816.97;;;9.63;100.00
11621;BME280;5866;49.094;11.900;2023-10-19T01:12:07;94812.75;;;9.96;100.00
11621;BME280;5866;49.094;11.900;2023-10-19T01:15:02;94799.94;;;10.27;100.00
11621;BME280;5866;49.094;11.900;2023-10-19T01:17:33;94805.13;;;9.38;100.00
11621;BME280;5866;49.094;11.900;2023-10-19T01:20:09;94808.63;;;9.24;100.00
11621;BME280;5866;49.094;11.900;2023-10-19T01:22:49;94809.00;;;9.00;100.00
11621;BME280;5866;49.094;11.900;2023-10-19T01:25:19;94798.56;;;9.13;100.00
11621;BME280;5866;49.094;11.900;2023-10-19T01:27:52;94806.25;;;9.08;100.00
11621;BME280;5866;49.094;11.900;2023-10-19T01:30:24;94796.34;;;8.95;100.00
11621;BME280;5866;49.094;11.900;2023-10-19T01:32:53;94788.84;;;8.77;100.00
11621;BME280;5866;49.094;11.900;2023-10-19T01:35:21;94785.41;;;8.98;100.00
11621;BME280;5866;49.094;11.900;2023-10-19T01:37:50;94787.72;;;9.50;100.00
11621;BME280;5866;49.094;11.900;2023-10-19T01:40:16;94776.88;;;9.45;100.00
11621;BME280;5866;49.094;11.900;2023-10-19T01:42:47;94785.97;;;9.57;100.00
11621;BME280;5866;49.094;11.900;2023-10-19T01:45:14;94778.16;;;9.07;100.00
11621;BME280;5866;49.094;11.900;2023-10-19T01:47:41;94776.59;;;9.33;100.00
11621;BME280;5866;49.094;11.900;2023-10-19T01:50:10;94778.97;;;9.28;100.00
11621;BME280;5866;49.094;11.900;2023-10-19T01:52:46;94778.19;;;9.55;100.00
11621;BME280;5866;49.094;11.900;2023-10-19T01:55:14;94775.97;;;9.80;100.00
11621;BME280;5866;49.094;11.900;2023-10-19T01:57:47;94774.22;;;9.94;100.00
11621;BME280;5866;49.094;11.900;2023-10-19T02:00:14;94762.84;;;10.27;100.00
11621;BME280;5866;49.094;11.900;2023-10-19T02:02:49;94757.84;;;10.46;100.00
11621;BME280;5866;49.094;11.900;2023-10-19T02:05:16;94765.03;;;10.58;100.00
11621;BME280;5866;49.094;11.900;2023-10-19T02:07:45;94764.81;;;10.53;100.00
11621;BME280;5866;49.094;11.900;2023-10-19T02:10:14;94768.69;;;10.51;100.00
11621;BME280;5866;49.094;11.900;2023-10-19T02:12:42;94765.56;;;10.41;100.00
11621;BME280;5866;49.094;11.900;2023-10-19T02:15:09;94758.94;;;10.64;100.00
11621;BME280;5866;49.094;11.900;2023-10-19T02:17:37;94760.16;;;10.62;100.00
11621;BME280;5866;49.094;11.900;2023-10-19T02:20:05;94747.19;;;10.80;100.00
11621;BME280;5866;49.094;11.900;2023-10-19T02:22:55;94746.41;;;10.92;100.00
11621;BME280;5866;49.094;11.900;2023-10-19T02:25:25;94734.56;;;10.88;100.00
11621;BME280;5866;49.094;11.900;2023-10-19T02:27:57;94738.06;;;10.95;100.00
11621;BME280;5866;49.094;11.900;2023-10-19T02:30:24;94747.19;;;10.80;100.00
11621;BME280;5866;49.094;11.900;2023-10-19T02:32:52;94743.66;;;10.73;100.00
11621;BME280;5866;49.094;11.900;2023-10-19T02:35:20;94737.19;;;10.82;100.00
11621;BME280;5866;49.094;11.900;2023-10-19T02:37:46;94728.03;;;10.91;100.00
11621;BME280;5866;49.094;11.900;2023-10-19T02:40:14;94721.94;;;11.03;100.00
11621;BME280;5866;49.094;11.900;2023-10-19T02:42:47;94721.50;;;11.00;100.00
11621;BME280;5866;49.094;11.900;2023-10-19T02:45:15;94718.84;;;11.00;100.00
11621;BME280;5866;49.094;11.900;2023-10-19T02:47:43;94717.34;;;10.65;100.00
11621;BME280;5866;49.094;11.900;2023-10-19T02:50:11;94720.19;;;10.63;100.00
11621;BME280;5866;49.094;11.900;2023-10-19T02:52:40;94720.56;;;10.47;100.00
11621;BME280;5866;49.094;11.900;2023-10-19T02:55:09;94717.44;;;10.37;100.00
11621;BME280;5866;49.094;11.900;2023-10-19T02:57:36;94715.75;;;9.95;100.00
11621;BME280;5866;49.094;11.900;2023-10-19T03:00:07;94721.28;;;9.66;100.00
11621;BME280;5866;49.094;11.900;2023-10-19T03:02:38;94720.38;;;9.52;100.00
11621;BME280;5866;49.094;11.900;2023-10-19T03:05:07;94713.47;;;9.58;100.00
11621;BME280;5866;49.094;11.900;2023-10-19T03:07:41;94709.56;;;9.26;100.00
11621;BME280;5866;49.094;11.900;2023-10-19T03:10:10;94716.03;;;9.24;100.00
11621;BME280;5866;49.094;11.900;2023-10-19T03:12:49;94710.97;;;9.50;100.00
11621;BME280;5866;49.094;11.900;2023-10-19T03:15:19;94713.38;;;9.45;100.00
11621;BME280;5866;49.094;11.900;2023-10-19T03:17:47;94708.03;;;9.38;100.00
11621;BME280;5866;49.094;11.900;2023-10-19T03:20:16;94698.66;;;9.36;100.00
11621;BME280;5866;49.094;11.900;2023-10-19T03:22:44;94692.41;;;9.43;100.00
11621;BME280;5866;49.094;11.900;2023-10-19T03:25:13;94680.72;;;9.59;100.00
11621;BME280;5866;49.094;11.900;2023-10-19T03:27:57;94672.78;;;9.66;100.00
11621;BME280;5866;49.094;11.900;2023-10-19T03:30:26;94673.84;;;9.99;100.00
11621;BME280;5866;49.094;11.900;2023-10-19T03:32:54;94690.28;;;10.22;100.00
11621;BME280;5866;49.094;11.900;2023-10-19T03:35:22;94674.38;;;10.28;100.00
11621;BME280;5866;49.094;11.900;2023-10-19T03:37:50;94674.88;;;10.52;100.00
11621;BME280;5866;49.094;11.900;2023-10-19T03:40:18;94669.34;;;10.40;100.00
11621;BME280;5866;49.094;11.900;2023-10-19T03:42:54;94657.25;;;10.24;100.00
11621;BME280;5866;49.094;11.900;2023-10-19T03:45:22;94655.50;;;10.45;100.00
11621;BME280;5866;49.094;11.900;2023-10-19T03:47:52;94656.31;;;10.52;100.00
11621;BME280;5866;49.094;11.900;2023-10-19T03:50:22;94650.00;;;10.53;100.00
11621;BME280;5866;49.094;11.900;2023-10-19T03:52:50;94645.88;;;10.37;100.00
11621;BME280;5866;49.094;11.900;2023-10-19T03:55:18;94639.53;;;9.91;100.00
11621;BME280;5866;49.094;11.900;2023-10-19T03:57:46;94644.88;;;9.56;100.00
11621;BME280;5866;49.094;11.900;2023-10-19T04:00:21;94648.72;;;9.54;100.00
11621;BME280;5866;49.094;11.900;2023-10-19T04:02:53;94648.25;;;9.44;100.00
11621;BME280;5866;49.094;11.900;2023-10-19T04:05:22;94646.31;;;9.66;100.00
11621;BME280;5866;49.094;11.900;2023-10-19T04:07:50;94634.38;;;9.76;100.00
11621;BME280;5866;49.094;11.900;2023-10-19T04:10:21;94641.84;;;10.00;100.00
11621;BME280;5866;49.094;11.900;2023-10-19T04:13:05;94622.84;;;9.90;100.00
11621;BME280;5866;49.094;11.900;2023-10-19T04:15:39;94620.38;;;9.82;100.00
11621;BME280;5866;49.094;11.900;2023-10-19T04:18:09;94604.84;;;10.13;100.00
11621;BME280;5866;49.094;11.900;2023-10-19T04:20:38;94581.47;;;10.36;100.00
11621;BME280;5866;49.094;11.900;2023-10-19T04:23:23;94581.09;;;10.53;100.00
11621;BME280;5866;49.094;11.900;2023-10-19T04:25:53;94577.03;;;10.57;100.00
11621;BME280;5866;49.094;11.900;2023-10-19T04:28:24;94562.94;;;10.36;100.00
11621;BME280;5866;49.094;11.900;2023-10-19T04:31:00;94559.25;;;10.37;100.00
11621;BME280;5866;49.094;11.900;2023-10-19T04:33:31;94559.09;;;10.85;100.00
11621;BME280;5866;49.094;11.900;2023-10-19T04:36:00;94570.91;;;11.02;100.00
11621;BME280;5866;49.094;11.900;2023-10-19T04:38:28;94591.72;;;10.66;100.00
11621;BME280;5866;49.094;11.900;2023-10-19T04:41:06;94592.72;;;10.45;100.00
11621;BME280;5866;49.094;11.900;2023-10-19T04:43:35;94602.25;;;10.39;100.00
11621;BME280;5866;49.094;11.900;2023-10-19T04:46:07;94609.53;;;10.11;100.00
11621;BME280;5866;49.094;11.900;2023-10-19T04:48:40;94624.13;;;10.01;100.00
11621;BME280;5866;49.094;11.900;2023-10-19T04:51:08;94630.81;;;9.90;100.00
11621;BME280;5866;49.094;11.900;2023-10-19T04:53:37;94665.31;;;9.69;100.00
11621;BME280;5866;49.094;11.900;2023-10-19T04:56:07;94658.34;;;9.34;100.00
11621;BME280;5866;49.094;11.900;2023-10-19T04:58:39;94666.41;;;9.26;100.00
11621;BME280;5866;49.094;11.900;2023-10-19T05:01:06;94670.28;;;9.23;100.00
11621;BME280;5866;49.094;11.900;2023-10-19T05:03:34;94674.84;;;9.08;100.00
11621;BME280;5866;49.094;11.900;2023-10-19T05:06:03;94669.88;;;9.54;100.00
11621;BME280;5866;49.094;11.900;2023-10-19T05:08:31;94657.31;;;9.97;100.00
11621;BME280;5866;49.094;11.900;2023-10-19T05:10:59;94650.34;;;10.30;100.00
11621;BME280;5866;49.094;11.900;2023-10-19T05:13:27;94659.16;;;10.44;100.00
11621;BME280;5866;49.094;11.900;2023-10-19T05:15:54;94657.38;;;10.64;100.00
11621;BME280;5866;49.094;11.900;2023-10-19T05:18:22;94662.53;;;10.24;100.00
11621;BME280;5866;49.094;11.900;2023-10-19T05:20:50;94671.94;;;9.86;100.00
11621;BME280;5866;49.094;11.900;2023-10-19T05:23:23;94662.75;;;10.23;100.00
11621;BME280;5866;49.094;11.900;2023-10-19T05:25:52;94662.69;;;10.64;100.00
11621;BME280;5866;49.094;11.900;2023-10-19T05:28:20;94641.09;;;10.80;100.00
11621;BME280;5866;49.094;11.900;2023-10-19T05:30:48;94638.59;;;10.59;100.00
11621;BME280;5866;49.094;11.900;2023-10-19T05:33:17;94611.22;;;10.32;100.00
11621;BME280;5866;49.094;11.900;2023-10-19T05:35:47;94599.28;;;9.61;100.00
11621;BME280;5866;49.094;11.900;2023-10-19T05:38:14;94599.28;;;9.61;100.00
11621;BME280;5866;49.094;11.900;2023-10-19T05:40:44;94602.94;;;10.01;100.00
11621;BME280;5866;49.094;11.900;2023-10-19T05:43:11;94599.75;;;10.18;100.00
11621;BME280;5866;49.094;11.900;2023-10-19T05:45:39;94598.16;;;10.37;100.00
11621;BME280;5866;49.094;11.900;2023-10-19T05:48:07;94582.75;;;10.86;100.00
11621;BME280;5866;49.094;11.900;2023-10-19T05:50:35;94579.06;;;10.87;100.00
11621;BME280;5866;49.094;11.900;2023-10-19T05:53:03;94583.75;;;10.79;100.00
11621;BME280;5866;49.094;11.900;2023-10-19T05:55:32;94593.75;;;10.77;100.00
11621;BME280;5866;49.094;11.900;2023-10-19T05:58:02;94608.88;;;10.96;100.00
11621;BME280;5866;49.094;11.900;2023-10-19T06:00:30;94597.63;;;11.33;100.00
11621;BME280;5866;49.094;11.900;2023-10-19T06:02:58;94596.41;;;11.29;100.00
11621;BME280;5866;49.094;11.900;2023-10-19T06:05:26;94607.44;;;11.26;100.00
11621;BME280;5866;49.094;11.900;2023-10-19T06:07:53;94612.91;;;11.57;100.00
11621;BME280;5866;49.094;11.900;2023-10-19T06:10:22;94612.13;;;11.37;100.00
11621;BME280;5866;49.094;11.900;2023-10-19T06:12:51;94624.19;;;11.13;100.00
11621;BME280;5866;49.094;11.900;2023-10-19T06:15:21;94619.09;;;11.12;100.00
11621;BME280;5866;49.094;11.900;2023-10-19T06:17:50;94619.88;;;11.12;100.00
11621;BME280;5866;49.094;11.900;2023-10-19T06:20:18;94603.34;;;11.30;100.00
11621;BME280;5866;49.094;11.900;2023-10-19T06:22:53;94604.97;;;11.44;100.00
11621;BME280;5866;49.094;11.900;2023-10-19T06:25:24;94603.09;;;11.71;100.00
11621;BME280;5866;49.094;11.900;2023-10-19T06:27:52;94591.22;;;11.86;100.00
11621;BME280;5866;49.094;11.900;2023-10-19T06:30:25;94589.59;;;11.85;100.00
11621;BME280;5866;49.094;11.900;2023-10-19T06:32:54;94582.63;;;11.91;100.00
11621;BME280;5866;49.094;11.900;2023-10-19T06:35:23;94596.03;;;12.03;100.00
11621;BME280;5866;49.094;11.900;2023-10-19T06:37:52;94598.41;;;12.24;100.00
11621;BME280;5866;49.094;11.900;2023-10-19T06:40:21;94602.47;;;12.33;100.00
11621;BME280;5866;49.094;11.900;2023-10-19T06:42:49;94600.00;;;12.38;100.00
11621;BME280;5866;49.094;11.900;2023-10-19T06:45:17;94586.13;;;12.29;100.00
11621;BME280;5866;49.094;11.900;2023-10-19T06:47:49;94573.56;;;12.43;100.00
11621;BME280;5866;49.094;11.900;2023-10-19T06:50:19;94578.22;;;12.54;100.00
11621;BME280;5866;49.094;11.900;2023-10-19T06:52:48;94582.31;;;12.56;100.00
11621;BME280;5866;49.094;11.900;2023-10-19T06:55:17;94587.44;;;12.51;100.00
11621;BME280;5866;49.094;11.900;2023-10-19T06:57:48;94600.50;;;12.53;100.00
11621;BME280;5866;49.094;11.900;2023-10-19T07:00:18;94601.59;;;12.45;100.00
11621;BME280;5866;49.094;11.900;2023-10-19T07:02:48;94606.91;;;11.94;100.00
11621;BME280;5866;49.094;11.900;2023-10-19T07:05:17;94604.22;;;12.08;100.00
11621;BME280;5866;49.094;11.900;2023-10-19T07:07:48;94606.31;;;11.86;100.00
11621;BME280;5866;49.094;11.900;2023-10-19T07:10:18;94594.91;;;11.85;100.00
11621;BME280;5866;49.094;11.900;2023-10-19T07:12:47;94578.78;;;11.80;100.00
11621;BME280;5866;49.094;11.900;2023-10-19T07:15:15;94587.75;;;12.30;100.00
11621;BME280;5866;49.094;11.900;2023-10-19T07:17:47;94580.69;;;12.49;100.00
11621;BME280;5866;49.094;11.900;2023-10-19T07:20:16;94571.50;;;13.07;100.00
11621;BME280;5866;49.094;11.900;2023-10-19T07:22:52;94578.44;;;13.76;96.84
11621;BME280;5866;49.094;11.900;2023-10-19T07:25:20;94578.59;;;13.99;91.37
11621;BME280;5866;49.094;11.900;2023-10-19T07:27:48;94578.88;;;14.45;88.00
11621;BME280;5866;49.094;11.900;2023-10-19T07:30:17;94577.50;;;14.54;85.10
11621;BME280;5866;49.094;11.900;2023-10-19T07:32:49;94572.81;;;14.38;81.86
11621;BME280;5866;49.094;11.900;2023-10-19T07:35:24;94584.56;;;14.12;84.89
11621;BME280;5866;49.094;11.900;2023-10-19T07:37:53;94590.97;;;14.11;87.19
11621;BME280;5866;49.094;11.900;2023-10-19T07:40:20;94584.72;;;14.17;85.37
11621;BME280;5866;49.094;11.900;2023-10-19T07:42:50;94580.28;;;13.93;87.79
11621;BME280;5866;49.094;11.900;2023-10-19T07:45:20;94580.94;;;14.25;86.34
11621;BME280;5866;49.094;11.900;2023-10-19T07:47:49;94586.91;;;14.86;83.06
11621;BME280;5866;49.094;11.900;2023-10-19T07:50:17;94582.00;;;14.83;82.22
11621;BME280;5866;49.094;11.900;2023-10-19T07:52:46;94583.75;;;14.89;79.67
11621;BME280;5866;49.094;11.900;2023-10-19T07:55:15;94575.66;;;15.49;77.92
11621;BME280;5866;49.094;11.900;2023-10-19T07:57:43;94578.22;;;14.91;78.60
11621;BME280;5866;49.094;11.900;2023-10-19T08:00:12;94572.72;;;14.74;79.83
11621;BME280;5866;49.094;11.900;2023-10-19T08:02:41;94578.00;;;13.79;86.89
11621;BME280;5866;49.094;11.900;2023-10-19T08:05:13;94575.63;;;14.07;89.88
11621;BME280;5866;49.094;11.900;2023-10-19T08:07:41;94576.00;;;14.58;87.02
11621;BME280;5866;49.094;11.900;2023-10-19T08:10:10;94571.41;;;14.65;84.17
11621;BME280;5866;49.094;11.900;2023-10-19T08:12:39;94576.59;;;14.60;82.31
11621;BME280;5866;49.094;11.900;2023-10-19T08:15:08;94576.59;;;14.60;83.64
11621;BME280;5866;49.094;11.900;2023-10-19T08:17:37;94570.22;;;14.61;83.90
11621;BME280;5866;49.094;11.900;2023-10-19T08:20:07;94569.16;;;14.51;84.94
11621;BME280;5866;49.094;11.900;2023-10-19T08:22:37;94574.56;;;14.44;85.97
11621;BME280;5866;49.094;11.900;2023-10-19T08:25:05;94581.00;;;14.18;88.08
11621;BME280;5866;49.094;11.900;2023-10-19T08:27:38;94580.06;;;14.13;88.83
11621;BME280;5866;49.094;11.900;2023-10-19T08:30:06;94582.75;;;13.95;91.57
11621;BME280;5866;49.094;11.900;2023-10-19T08:32:36;94582.06;;;13.81;92.91
11621;BME280;5866;49.094;11.900;2023-10-19T08:35:04;94571.31;;;14.24;92.23
11621;BME280;5866;49.094;11.900;2023-10-19T08:37:33;94565.03;;;14.37;89.27
11621;BME280;5866;49.094;11.900;2023-10-19T08:40:02;94556.88;;;14.31;92.99
11621;BME280;5866;49.094;11.900;2023-10-19T08:42:30;94564.41;;;14.64;89.15
11621;BME280;5866;49.094;11.900;2023-10-19T08:44:58;94555.34;;;14.54;88.87
11621;BME280;5866;49.094;11.900;2023-10-19T08:47:26;94556.22;;;14.77;87.08
11621;BME280;5866;49.094;11.900;2023-10-19T08:49:54;94551.78;;;14.60;86.86
11621;BME280;5866;49.094;11.900;2023-10-19T08:52:22;94547.03;;;14.14;90.37
11621;BME280;5866;49.094;11.900;2023-10-19T08:54:53;94543.16;;;14.46;89.56
11621;BME280;5866;49.094;11.900;2023-10-19T08:57:22;94533.84;;;14.78;86.76
11621;BME280;5866;49.094;11.900;2023-10-19T08:59:49;94532.13;;;14.84;87.40
11621;BME280;5866;49.094;11.900;2023-10-19T09:02:17;94544.13;;;14.63;90.86
11621;BME280;5866;49.094;11.900;2023-10-19T09:04:47;94554.53;;;14.83;91.79
11621;BME280;5866;49.094;11.900;2023-10-19T09:07:16;94558.06;;;15.30;88.55
11621;BME280;5866;49.094;11.900;2023-10-19T09:09:45;94550.63;;;15.20;87.67
11621;BME280;5866;49.094;11.900;2023-10-19T09:12:14;94555.44;;;15.64;81.44
11621;BME280;5866;49.094;11.900;2023-10-19T09:14:42;94558.06;;;16.50;77.96
11621;BME280;5866;49.094;11.900;2023-10-19T09:17:12;94562.78;;;16.88;74.46
11621;BME280;5866;49.094;11.900;2023-10-19T09:19:41;94562.03;;;17.92;68.39
11621;BME280;5866;49.094;11.900;2023-10-19T09:22:10;94559.88;;;18.33;66.35
11621;BME280;5866;49.094;11.900;2023-10-19T09:24:45;94550.06;;;18.65;62.44
11621;BME280;5866;49.094;11.900;2023-10-19T09:27:13;94562.13;;;18.41;62.69
11621;BME280;5866;49.094;11.900;2023-10-19T09:29:45;94551.13;;;17.99;63.70
11621;BME280;5866;49.094;11.900;2023-10-19T09:32:13;94557.22;;;17.94;64.30
11621;BME280;5866;49.094;11.900;2023-10-19T09:34:44;94548.63;;;17.92;64.37
11621;BME280;5866;49.094;11.900;2023-10-19T09:37:16;94564.34;;;17.01;68.50
11621;BME280;5866;49.094;11.900;2023-10-19T09:39:44;94555.25;;;17.18;69.28
11621;BME280;5866;49.094;11.900;2023-10-19T09:42:11;94556.78;;;16.69;72.22
11621;BME280;5866;49.094;11.900;2023-10-19T09:44:44;94555.75;;;16.71;73.99
11621;BME280;5866;49.094;11.900;2023-10-19T09:47:17;94560.84;;;16.04;78.78
11621;BME280;5866;49.094;11.900;2023-10-19T09:49:48;94561.38;;;16.29;77.57
11621;BME280;5866;49.094;11.900;2023-10-19T09:52:17;94556.06;;;16.06;77.10
11621;BME280;5866;49.094;11.900;2023-10-19T09:54:52;94545.53;;;15.76;78.98
11621;BME280;5866;49.094;11.900;2023-10-19T09:57:27;94555.59;;;15.17;85.43
11621;BME280;5866;49.094;11.900;2023-10-19T10:00:04;94563.97;;;15.08;86.37
11621;BME280;5866;49.094;11.900;2023-10-19T10:02:39;94560.66;;;14.83;90.31
11621;BME280;5866;49.094;11.900;2023-10-19T10:08:29;94565.69;;;14.14;100.00
11621;BME280;5866;49.094;11.900;2023-10-19T10:10:57;94565.53;;;14.27;100.00
11621;BME280;5866;49.094;11.900;2023-10-19T10:13:37;94568.75;;;14.17;100.00
11621;BME280;5866;49.094;11.900;2023-10-19T10:16:06;94556.50;;;14.28;100.00
11621;BME280;5866;49.094;11.900;2023-10-19T10:18:34;94554.13;;;14.38;100.00
11621;BME280;5866;49.094;11.900;2023-10-19T10:21:05;94561.75;;;14.64;100.00
11621;BME280;5866;49.094;11.900;2023-10-19T10:23:40;94546.56;;;14.35;100.00
11621;BME280;5866;49.094;11.900;2023-10-19T10:26:10;94542.28;;;14.64;100.00
11621;BME280;5866;49.094;11.900;2023-10-19T10:28:38;94532.03;;;14.49;100.00
11621;BME280;5866;49.094;11.900;2023-10-19T10:31:19;94530.06;;;14.56;100.00
11621;BME280;5866;49.094;11.900;2023-10-19T10:33:49;94525.22;;;14.35;100.00
11621;BME280;5866;49.094;11.900;2023-10-19T10:36:18;94528.28;;;14.20;100.00
11621;BME280;5866;49.094;11.900;2023-10-19T10:38:47;94522.44;;;14.30;100.00
11621;BME280;5866;49.094;11.900;2023-10-19T10:41:23;94520.94;;;14.34;100.00
11621;BME280;5866;49.094;11.900;2023-10-19T10:43:55;94518.19;;;13.93;100.00
11621;BME280;5866;49.094;11.900;2023-10-19T10:46:25;94521.84;;;13.80;100.00
11621;BME280;5866;49.094;11.900;2023-10-19T10:48:53;94510.34;;;13.43;100.00
11621;BME280;5866;49.094;11.900;2023-10-19T10:51:22;94503.31;;;13.49;100.00
11621;BME280;5866;49.094;11.900;2023-10-19T10:53:51;94503.19;;;13.44;100.00
11621;BME280;5866;49.094;11.900;2023-10-19T10:56:21;94497.84;;;13.44;100.00
11621;BME280;5866;49.094;11.900;2023-10-19T10:58:49;94496.00;;;13.44;100.00
11621;BME280;5866;49.094;11.900;2023-10-19T11:01:29;94488.69;;;13.40;100.00
11621;BME280;5866;49.094;11.900;2023-10-19T11:04:06;94478.84;;;13.40;100.00
11621;BME280;5866;49.094;11.900;2023-10-19T11:06:45;94472.47;;;13.23;100.00
11621;BME280;5866;49.094;11.900;2023-10-19T11:09:13;94469.66;;;13.18;100.00
11621;BME280;5866;49.094;11.900;2023-10-19T11:11:44;94463.22;;;13.01;100.00
11621;BME280;5866;49.094;11.900;2023-10-19T11:14:12;94462.84;;;13.04;100.00
11621;BME280;5866;49.094;11.900;2023-10-19T11:16:41;94461.94;;;13.10;100.00
11621;BME280;5866;49.094;11.900;2023-10-19T11:19:10;94453.06;;;13.34;100.00
11621;BME280;5866;49.094;11.900;2023-10-19T11:21:38;94449.47;;;13.29;100.00
11621;BME280;5866;49.094;11.900;2023-10-19T11:24:07;94451.59;;;13.57;100.00
11621;BME280;5866;49.094;11.900;2023-10-19T11:26:39;94459.91;;;13.48;100.00
11621;BME280;5866;49.094;11.900;2023-10-19T11:29:07;94448.63;;;13.65;100.00
11621;BME280;5866;49.094;11.900;2023-10-19T11:31:36;94440.66;;;13.65;100.00
11621;BME280;5866;49.094;11.900;2023-10-19T11:34:07;94449.97;;;13.55;100.00
11621;BME280;5866;49.094;11.900;2023-10-19T11:36:36;94445.31;;;13.51;100.00
11621;BME280;5866;49.094;11.900;2023-10-19T11:39:05;94432.84;;;13.33;100.00
11621;BME280;5866;49.094;11.900;2023-10-19T11:41:37;94421.72;;;13.54;100.00
11621;BME280;5866;49.094;11.900;2023-10-19T11:44:05;94423.44;;;13.79;100.00
11621;BME280;5866;49.094;11.900;2023-10-19T11:46:35;94417.75;;;13.75;100.00
11621;BME280;5866;49.094;11.900;2023-10-19T11:49:02;94410.34;;;14.07;100.00
11621;BME280;5866;49.094;11.900;2023-10-19T11:51:31;94418.09;;;14.38;100.00
11621;BME280;5866;49.094;11.900;2023-10-19T11:53:59;94410.38;;;14.71;100.00
11621;BME280;5866;49.094;11.900;2023-10-19T11:56:27;94413.38;;;15.33;100.00
11621;BME280;5866;49.094;11.900;2023-10-19T11:58:55;94414.19;;;15.84;100.00
11621;BME280;5866;49.094;11.900;2023-10-19T12:01:22;94408.47;;;16.37;100.00
11621;BME280;5866;49.094;11.900;2023-10-19T12:03:51;94415.72;;;16.53;96.74
11621;BME280;5866;49.094;11.900;2023-10-19T12:06:19;94408.63;;;16.47;96.38
11621;BME280;5866;49.094;11.900;2023-10-19T12:08:51;94402.59;;;16.52;91.13
11621;BME280;5866;49.094;11.900;2023-10-19T12:11:18;94396.50;;;16.56;91.50
11621;BME280;5866;49.094;11.900;2023-10-19T12:13:48;94396.88;;;17.15;89.46
11621;BME280;5866;49.094;11.900;2023-10-19T12:16:16;94392.31;;;17.54;85.68
11621;BME280;5866;49.094;11.900;2023-10-19T12:18:44;94392.78;;;17.72;83.89
11621;BME280;5866;49.094;11.900;2023-10-19T12:21:12;94400.75;;;17.89;83.25
11621;BME280;5866;49.094;11.900;2023-10-19T12:23:42;94395.97;;;18.71;75.59
11621;BME280;5866;49.094;11.900;2023-10-19T12:26:11;94390.03;;;19.00;73.19
11621;BME280;5866;49.094;11.900;2023-10-19T12:28:40;94389.47;;;18.98;71.15
11621;BME280;5866;49.094;11.900;2023-10-19T12:31:08;94393.53;;;19.01;70.44
11621;BME280;5866;49.094;11.900;2023-10-19T12:33:37;94392.03;;;18.52;71.40
11621;BME280;5866;49.094;11.900;2023-10-19T12:36:05;94387.03;;;18.34;72.25
11621;BME280;5866;49.094;11.900;2023-10-19T12:38:50;94390.00;;;18.10;74.70
11621;BME280;5866;49.094;11.900;2023-10-19T12:41:20;94386.50;;;17.83;76.40
11621;BME280;5866;49.094;11.900;2023-10-19T12:43:48;94394.19;;;17.53;79.02
11621;BME280;5866;49.094;11.900;2023-10-19T12:46:19;94384.97;;;17.49;81.82
11621;BME280;5866;49.094;11.900;2023-10-19T12:48:48;94382.50;;;17.42;80.49
11621;BME280;5866;49.094;11.900;2023-10-19T12:51:16;94384.84;;;17.39;80.58
11621;BME280;5866;49.094;11.900;2023-10-19T12:53:50;94385.19;;;17.26;80.71
11621;BME280;5866;49.094;11.900;2023-10-19T12:56:20;94386.53;;;17.23;81.16
11621;BME280;5866;49.094;11.900;2023-10-19T12:58:50;94381.59;;;17.15;82.01
11621;BME280;5866;49.094;11.900;2023-10-19T13:01:18;94375.31;;;17.26;82.99
11621;BME280;5866;49.094;11.900;2023-10-19T13:03:48;94371.53;;;17.06;86.52
11621;BME280;5866;49.094;11.900;2023-10-19T13:06:17;94383.03;;;17.23;87.29
11621;BME280;5866;49.094;11.900;2023-10-19T13:08:46;94372.78;;;16.98;90.17
11621;BME280;5866;49.094;11.900;2023-10-19T13:11:13;94375.09;;;16.56;95.82
11621;BME280;5866;49.094;11.900;2023-10-19T13:13:46;94372.31;;;16.68;97.66